Flight Track Log - Related Links

Times and Time Zones

All times are in EDT time to prevent confusion due to time zone crossing. See the SKW4728 flight status page for this flight to view local times or setup timezone preferences in your user account.

Time Position Orientation Groundspeed Altitude Reporting Facility
EDT Latitude Longitude Course Direction KTS MPH feet Rate Location/Type
Sun 01:27:28 PM 40.7672 -111.9983 261° West 197 227 5,100  Level Salt Lake Center
Sun 01:28:28 PM 40.7439 -112.0544 241° Southwest 222 255 7,300 2,143 Climbing Salt Lake Center
Sun 01:29:06 PM 40.7619 -112.1008 297° West 240 276 8,600 2,066 Climbing Salt Lake Center
Sun 01:29:29 PM 40.7736 -112.1406 291° West 261 300 9,400 1,574 Climbing Salt Lake Center
Sun 01:30:00 PM 40.8240 -112.3053 294° West  Level FlightAware Approximate
Sun 01:30:07 PM 40.7922 -112.1922 295° West 267 307 10,200  Level Salt Lake Center
Sun 01:31:00 PM 40.8643 -112.4238 288° West  Level FlightAware Approximate
Sun 01:31:09 PM 40.8236 -112.2864 294° West 279 321 12,400  Level Salt Lake Center
Sun 01:32:00 PM 40.8518 -112.5525 261° West  Level FlightAware Approximate
Sun 01:32:10 PM 40.8578 -112.3942 293° West 313 360 13,900  Level Salt Lake Center
Sun 01:33:12 PM 40.8658 -112.5186 275° West 346 398 15,000 1,512 Climbing Salt Lake Center
Sun 01:34:13 PM 40.8572 -112.6522 265° West 364 419 17,000 1,854 Climbing Salt Lake Center
Sun 01:35:15 PM 40.8461 -112.7808 264° West 354 407 18,800 2,032 Climbing Salt Lake Center
Sun 01:36:17 PM 40.8428 -112.9303 268° West 339 390 21,200 1,805 Climbing Salt Lake Center
Sun 01:37:18 PM 40.8431 -113.0528 270° West 336 387 22,500 1,171 Climbing Salt Lake Center
Sun 01:38:20 PM 40.8436 -113.1789 270° West 344 396 23,600 1,065 Climbing Salt Lake Center
Sun 01:39:22 PM 40.8433 -113.3072 270° West 350 403 24,700 1,122 Climbing Salt Lake Center
Sun 01:40:23 PM 40.8419 -113.4372 269° West 354 407 25,900 1,220 Climbing Salt Lake Center
Sun 01:41:25 PM 40.8428 -113.5647 271° West 350 403 27,200 871 Climbing Salt Lake Center
Sun 01:42:27 PM 40.8419 -113.6911 270° West 346 398 27,700 634 Climbing Salt Lake Center
Sun 01:43:28 PM 40.8411 -113.8469 270° West 353 406 28,500 683 Climbing Salt Lake Center
Sun 01:44:30 PM 40.8403 -113.9764 270° West 354 407 29,100 677 Climbing Salt Lake Center
Sun 01:45:32 PM 40.8400 -114.1067 270° West 355 409 29,900 878 Climbing Salt Lake Center
Sun 01:46:33 PM 40.8386 -114.2339 269° West 350 403 30,900 976 Climbing Salt Lake Center
Sun 01:47:35 PM 40.8378 -114.3569 270° West 340 391 31,900 532 Climbing Salt Lake Center
Sun 01:48:37 PM 40.8367 -114.4892 269° West 334 384 32,000 48 Climbing Salt Lake Center
Sun 01:49:39 PM 40.8344 -114.6114 269° West 342 394 32,000  Level Salt Lake Center
Sun 01:50:41 PM 40.8311 -114.7547 268° West 347 399 32,000  Level Salt Lake Center
Sun 01:51:42 PM 40.8194 -114.8811 263° West 358 412 32,000  Level Salt Lake Center
Sun 01:52:44 PM 40.8014 -115.0306 261° West 368 423 32,000  Level Salt Lake Center
Sun 01:53:46 PM 40.7858 -115.1594 261° West 370 426 32,000  Level Salt Lake Center
Sun 01:54:48 PM 40.7675 -115.3103 261° West 373 429 32,000  Level Salt Lake Center
Sun 01:55:50 PM 40.7525 -115.4414 261° West 377 434 32,000  Level Salt Lake Center
Sun 01:56:51 PM 40.7383 -115.5708 262° West 374 430 32,000  Level Salt Lake Center
Sun 01:57:53 PM 40.7203 -115.7256 261° West 379 436 32,000  Level Salt Lake Center
Sun 01:58:55 PM 40.7033 -115.8578 260° West 382 440 32,000  Level Salt Lake Center
Sun 01:59:57 PM 40.6850 -116.0117 261° West 382 440 32,000  Level Salt Lake Center
Sun 02:00:59 PM 40.6686 -116.1439 261° West 382 440 32,000  Level Salt Lake Center
Sun 02:02:01 PM 40.6489 -116.3003 261° West 387 445 32,000  Level Salt Lake Center
Sun 02:03:02 PM 40.6314 -116.4331 260° West 386 444 32,000  Level Salt Lake Center
Sun 02:04:04 PM 40.6122 -116.5892 261° West 388 447 32,000  Level Salt Lake Center
Sun 02:05:06 PM 40.5956 -116.7222 261° West 387 445 32,000  Level Salt Lake Center
Sun 02:06:08 PM 40.5758 -116.8775 261° West 389 448 32,000  Level Salt Lake Center
Sun 02:07:10 PM 40.5944 -117.0061 281° West 379 436 32,000  Level Salt Lake Center
Sun 02:08:12 PM 40.6369 -117.1492 291° West 377 434 32,000  Level Salt Lake Center
Sun 02:09:14 PM 40.6728 -117.2722 291° West 378 435 32,000  Level Salt Lake Center
Sun 02:10:15 PM 40.7147 -117.4169 291° West 379 436 32,000  Level Salt Lake Center
Sun 02:11:17 PM 40.7511 -117.5403 291° West 378 435 32,000  Level Salt Lake Center
Sun 02:12:19 PM 40.7869 -117.6636 291° West 377 434 32,000  Level Salt Lake Center
Sun 02:13:21 PM 40.8292 -117.8103 291° West 380 437 32,000  Level Salt Lake Center
Sun 02:14:23 PM 40.8650 -117.9356 291° West 381 438 32,000  Level Salt Lake Center
Sun 02:15:25 PM 40.9061 -118.0814 290° West 380 437 32,000  Level Salt Lake Center
Sun 02:16:26 PM 40.9436 -118.2072 292° West 383 441 32,000  Level Salt Lake Center
Sun 02:17:28 PM 40.9836 -118.3536 290° West 381 438 32,000  Level Salt Lake Center
Sun 02:18:30 PM 41.0197 -118.4811 291° West 383 441 32,000  Level Salt Lake Center
Sun 02:19:32 PM 41.0606 -118.6294 290° West 383 441 32,000  Level Salt Lake Center
Sun 02:20:34 PM 41.0964 -118.7556 291° West 383 441 32,000  Level Salt Lake Center
Sun 02:21:36 PM 41.1303 -118.8811 290° West 381 438 32,000  Level Salt Lake Center
Sun 02:22:37 PM 41.1708 -119.0294 290° West 382 440 32,000  Level Salt Lake Center
Sun 02:23:39 PM 41.2069 -119.1564 291° West 383 441 32,000  Level Salt Lake Center
Sun 02:24:41 PM 41.2458 -119.3047 289° West 381 438 32,000  Level Salt Lake Center
Sun 02:25:14 PM 41.2650 -119.3778 289° West 382 440 32,000  Level Seattle Center
Sun 02:26:15 PM 41.3008 -119.5100 290° West 381 438 32,000  Level Seattle Center
Sun 02:27:16 PM 41.3369 -119.6411 290° West 379 436 32,000  Level Seattle Center
Sun 02:28:17 PM 41.3739 -119.7736 290° West 380 437 32,000  Level Seattle Center
Sun 02:29:18 PM 41.4122 -119.9053 291° West 382 440 32,000  Level Seattle Center
Sun 02:30:19 PM 41.4483 -120.0375 290° West 380 437 32,000  Level Seattle Center
Sun 02:31:20 PM 41.4911 -120.1653 294° West 379 436 32,000  Level Seattle Center
Sun 02:32:22 PM 41.5400 -120.2911 297° West 382 440 32,000  Level Seattle Center
Sun 02:33:23 PM 41.5900 -120.4156 298° West 381 438 32,000  Level Seattle Center
Sun 02:34:24 PM 41.6381 -120.5406 297° West 379 436 32,000  Level Seattle Center
Sun 02:35:25 PM 41.6839 -120.6658 296° West 375 432 32,000  Level Seattle Center
Sun 02:36:26 PM 41.7397 -120.8164 296° West 380 437 32,000  Level Seattle Center
Sun 02:37:27 PM 41.7842 -120.9397 296° West 372 428 32,000  Level Seattle Center
Sun 02:38:28 PM 41.8300 -121.0658 296° West 376 433 32,000  Level Seattle Center
Sun 02:39:29 PM 41.8750 -121.1903 296° West 372 428 32,000 -984 Level Seattle Center
Sun 02:40:30 PM 41.9208 -121.3172 296° West 376 433 30,000 -2,115 Descending Seattle Center
Sun 02:41:31 PM 41.9664 -121.4456 296° West 381 438 27,700 -2,311 Descending Seattle Center
Sun 02:42:32 PM 42.0100 -121.5675 296° West 363 418 25,300 -2,361 Descending Seattle Center
Sun 02:43:33 PM 42.0522 -121.6856 296° West 351 404 22,900 -2,380 Descending Seattle Center
Sun 02:44:33 PM 42.0928 -121.8008 295° West 344 396 20,500 -2,331 Descending Seattle Center
Sun 02:45:34 PM 42.1328 -121.9139 296° West 345 397 18,200 -2,311 Descending Seattle Center
Sun 02:46:35 PM 42.1806 -122.0497 295° West 345 397 15,800 -2,115 Descending Seattle Center
Sun 02:47:36 PM 42.2197 -122.1606 296° West 332 382 13,900 -1,869 Descending Seattle Center
Sun 02:48:37 PM 42.2600 -122.2750 295° West 338 389 12,000 -1,180 Descending Seattle Center
Sun 02:49:38 PM 42.2925 -122.3667 296° West 264 304 11,500 -1,033 Descending Seattle Center
Sun 02:50:39 PM 42.2869 -122.4569 265° West 256 295 9,900 -1,475 Descending Seattle Center
Sun 02:51:40 PM 42.2431 -122.5303 231° Southwest 255 293 8,500 -1,426 Descending Seattle Center
Sun 02:52:41 PM 42.2025 -122.6031 233° Southwest 251 289 7,000 -1,328 Descending Seattle Center
Sun 02:53:42 PM 42.2039 -122.6872 271° West 230 265 5,800 -1,230 Descending Seattle Center
Sun 02:54:43 PM 42.2433 -122.7683 303° West 214 246 4,500 -1,279 Descending Seattle Center

Login

Don't have an account? Register now (free) for customized features, flight alerts, and more!